Time;durP1;ratioP1;P1;durP2;ratioP2;P2;SDS_P1;SDS_P2;PMS_P1;PMS_P2;Temp;Humidity;BMP_temperature;BMP_pressure;BME280_temperature;BME280_humidity;BME280_pressure;Samples;Min_cycle;Max_cycle;Signal;HPM_P1;HPM_P2
2023/03/25 00:00:15;;;;;;;4.50;1.20;;;;;;;10.01;79.26;99502.44;105404;1254;73830;-61
2023/03/25 00:03:56;;;;;;;6.30;1.50;;;;;;;10.04;79.08;99493.23;105403;1253;69230;-61
2023/03/25 00:07:01;;;;;;;4.10;1.40;;;;;;;10.06;79.19;99485.80;105399;1257;69128;-60
2023/03/25 00:10:32;;;;;;;5.80;1.40;;;;;;;10.06;78.82;99480.73;105436;1253;74254;-60
2023/03/25 00:13:44;;;;;;;;;;;;;;;;;;;;;
2023/03/25 00:17:03;;;;;;;4.40;1.30;;;;;;;10.09;78.27;99469.77;105319;1253;73919;-61
2023/03/25 00:20:17;;;;;;;2.90;1.30;;;;;;;10.08;78.06;99467.71;105292;1254;69170;-63
2023/03/25 00:23:20;;;;;;;;;;;;;;;;;;;;;
2023/03/25 00:26:42;;;;;;;;;;;;;;;;;;;;;
2023/03/25 00:29:45;;;;;;;4.40;1.50;;;;;;;10.17;77.31;99463.62;105254;1257;83375;-62
2023/03/25 00:32:51;;;;;;;4.60;1.40;;;;;;;10.17;77.26;99466.41;105377;1254;73770;-62
2023/03/25 00:36:13;;;;;;;3.60;1.30;;;;;;;10.15;77.05;99467.36;105394;1257;69147;-59
2023/03/25 00:39:22;;;;;;;3.40;1.30;;;;;;;10.15;76.99;99470.67;105448;1253;69017;-59
2023/03/25 00:42:48;;;;;;;5.10;1.50;;;;;;;10.12;76.77;99464.91;105363;1253;73991;-60
2023/03/25 00:45:50;;;;;;;3.20;1.30;;;;;;;10.08;76.50;99460.79;105369;1257;82565;-63
2023/03/25 00:49:06;;;;;;;4.30;1.50;;;;;;;10.03;76.52;99467.98;105179;1253;73903;-60
2023/03/25 00:52:30;;;;;;;4.60;1.50;;;;;;;10.00;76.35;99467.08;105434;1254;69203;-59
2023/03/25 00:55:41;;;;;;;;;;;;;;;;;;;;;
2023/03/25 00:58:48;;;;;;;3.70;0.90;;;;;;;9.95;76.24;99470.81;105266;1253;74060;-61
2023/03/25 01:02:01;;;;;;;2.10;1.20;;;;;;;9.96;76.34;99473.35;105328;1259;83377;-62
2023/03/25 01:05:12;;;;;;;4.90;1.30;;;;;;;9.97;76.43;99466.33;105127;1260;73721;-60
2023/03/25 01:08:06;;;;;;;5.10;1.40;;;;;;;9.98;76.46;99479.89;105305;1257;69205;-63
2023/03/25 01:11:43;;;;;;;3.90;1.50;;;;;;;10.01;76.34;99472.77;105300;1258;69170;-61
2023/03/25 01:15:00;;;;;;;2.70;1.60;;;;;;;9.98;76.14;99470.81;105264;1259;73463;-60
2023/03/25 01:18:08;;;;;;;;;;;;;;;;;;;;;
2023/03/25 01:21:33;;;;;;;3.90;1.60;;;;;;;9.91;76.01;99465.56;105284;1258;73254;-63
2023/03/25 01:24:48;;;;;;;3.40;1.20;;;;;;;9.91;75.91;99460.34;105124;1253;69557;-62
2023/03/25 01:28:14;;;;;;;2.70;1.30;;;;;;;9.88;75.91;99458.94;105428;1258;69208;-60
2023/03/25 01:31:21;;;;;;;3.20;1.30;;;;;;;9.81;76.02;99453.16;105265;1258;73168;-60
2023/03/25 01:34:42;;;;;;;3.00;1.60;;;;;;;9.73;75.95;99452.86;105347;1253;82706;-62
2023/03/25 01:38:19;;;;;;;5.20;1.90;;;;;;;9.63;75.88;99452.84;105250;1253;72374;-61
2023/03/25 01:41:27;;;;;;;4.40;1.90;;;;;;;9.50;75.86;99451.55;105149;1253;69158;-59
2023/03/25 01:45:05;;;;;;;3.80;1.70;;;;;;;9.37;75.92;99443.61;105235;1258;69093;-65
2023/03/25 01:48:50;;;;;;;;;;;;;;;;;;;;;
2023/03/25 01:52:14;;;;;;;16.00;5.50;;;;;;;9.13;76.11;99440.18;104763;1262;82973;-62
2023/03/25 01:55:51;;;;;;;15.90;5.50;;;;;;;8.98;76.19;99440.02;104696;1262;73104;-63
2023/03/25 01:59:13;;;;;;;4.60;2.60;;;;;;;8.79;76.49;99443.48;104494;1268;69141;-62
2023/03/25 02:02:35;;;;;;;8.70;3.50;;;;;;;8.59;76.91;99439.33;104815;1262;69209;-60
2023/03/25 02:06:21;;;;;;;5.80;2.20;;;;;;;8.46;76.88;99438.98;104739;1267;73776;-61
2023/03/25 02:09:52;;;;;;;7.20;2.80;;;;;;;8.25;77.11;99429.27;104592;1271;83330;-62
2023/03/25 02:13:42;;;;;;;6.70;2.70;;;;;;;8.11;77.74;99427.60;104454;1266;73772;-61
2023/03/25 02:17:21;;;;;;;;;;;;;;;;;;;;;
2023/03/25 02:21:06;;;;;;;;;;;;;;;;;;;;;
2023/03/25 02:24:33;;;;;;;;;;;;;;;;;;;;;
2023/03/25 02:31:58;;;;;;;;;;;;;;;;;;;;;
2023/03/25 02:44:01;;;;;;;;;;;;;;;;;;;;;
2023/03/25 02:47:35;;;;;;;4.00;1.70;;;;;;;7.34;79.75;99410.94;103734;1274;69228;-59
2023/03/25 02:51:29;;;;;;;5.10;2.00;;;;;;;7.28;80.04;99416.05;104514;1268;69301;-61
2023/03/25 02:55:11;;;;;;;4.50;1.90;;;;;;;7.25;80.33;99413.36;104165;1272;72447;-63
2023/03/25 02:58:43;;;;;;;4.70;2.00;;;;;;;7.23;80.63;99413.97;100296;1269;82670;-62
2023/03/25 03:02:01;;;;;;;7.40;2.70;;;;;;;7.16;80.68;99409.02;104108;1270;69160;-60
2023/03/25 03:06:11;;;;;;;10.40;3.40;;;;;;;7.10;80.45;99414.64;104442;1275;69190;-60
2023/03/25 03:10:03;;;;;;;5.50;2.20;;;;;;;6.99;80.23;99415.41;103502;1278;72536;-61
2023/03/25 03:14:06;;;;;;;;;;;;;;;;;;;;;
2023/03/25 03:18:12;;;;;;;6.60;2.20;;;;;;;6.80;80.72;99413.02;102683;1292;72666;-62
2023/03/25 03:22:20;;;;;;;5.60;2.30;;;;;;;6.71;80.93;99414.75;101845;1299;69132;-62
2023/03/25 03:25:36;;;;;;;6.10;2.00;;;;;;;6.63;81.23;99413.15;101152;1305;69551;-58
2023/03/25 03:29:27;;;;;;;;;;;;;;;;;;;;;
2023/03/25 03:33:23;;;;;;;5.80;2.60;;;;;;;6.60;82.19;99418.09;102333;1295;600835;-60
2023/03/25 03:36:33;;;;;;;7.70;2.00;;;;;;;6.58;82.07;99423.04;104329;1273;69655;-62
2023/03/25 03:40:08;;;;;;;5.40;2.00;;;;;;;6.56;81.96;99414.10;104157;1273;69284;-59
2023/03/25 03:43:42;;;;;;;;;;;;;;;;;;;;;
2023/03/25 03:47:01;;;;;;;6.60;2.00;;;;;;;6.56;82.28;99422.39;100371;1268;5442781;-63
2023/03/25 03:50:53;;;;;;;5.00;2.10;;;;;;;6.58;82.52;99420.59;104341;1273;73356;-59
2023/03/25 03:54:33;;;;;;;;;;;;;;;;;;;;;
2023/03/25 03:58:08;;;;;;;6.80;2.40;;;;;;;6.62;83.02;99422.02;104404;1272;69226;-59
2023/03/25 04:02:27;;;;;;;6.20;2.50;;;;;;;6.65;83.05;99419.31;104350;1268;73124;-59
2023/03/25 04:05:37;;;;;;;9.80;2.60;;;;;;;6.70;83.10;99423.82;103194;1285;84236;-60
2023/03/25 04:09:10;;;;;;;5.90;2.10;;;;;;;6.74;82.44;99418.64;103142;1283;73703;-63
2023/03/25 04:13:07;;;;;;;6.00;1.60;;;;;;;6.76;82.73;99422.20;102381;1294;69326;-60
2023/03/25 04:16:18;;;;;;;5.50;1.70;;;;;;;6.76;82.65;99427.94;102238;1296;69229;-58
2023/03/25 04:19:35;;;;;;;;;;;;;;;;;;;;;
2023/03/25 04:23:39;;;;;;;;;;;;;;;;;;;;;
2023/03/25 04:27:20;;;;;;;7.80;2.30;;;;;;;6.86;83.34;99432.23;102761;1288;72676;-60
2023/03/25 04:31:14;;;;;;;5.40;2.10;;;;;;;6.93;83.22;99429.89;102976;1283;69275;-59
2023/03/25 04:34:19;;;;;;;5.20;2.10;;;;;;;6.98;83.15;99436.34;103000;1283;69736;-59
2023/03/25 04:38:17;;;;;;;;;;;;;;;;;;;;;
2023/03/25 04:41:27;;;;;;;5.90;1.90;;;;;;;7.14;83.35;99432.75;104778;1267;69193;-58
2023/03/25 04:45:06;;;;;;;5.90;1.90;;;;;;;7.23;83.14;99430.49;104584;1267;69244;-59
2023/03/25 04:48:39;;;;;;;;;;;;;;;;;;;;;
2023/03/25 04:51:52;;;;;;;6.60;2.40;;;;;;;7.30;83.44;99423.95;100864;1270;5441493;-63
2023/03/25 04:55:25;;;;;;;4.40;2.20;;;;;;;7.30;83.22;99417.52;104838;1263;73790;-59
2023/03/25 04:58:47;;;;;;;6.70;1.90;;;;;;;7.32;83.19;99418.15;104757;1266;69234;-62
2023/03/25 05:02:12;;;;;;;6.50;1.80;;;;;;;7.33;82.63;99415.87;105430;1257;69164;-61
2023/03/25 05:05:18;;;;;;;4.20;1.70;;;;;;;7.32;82.81;99416.73;105463;1254;72521;-58
2023/03/25 05:09:03;;;;;;;5.90;2.00;;;;;;;7.34;82.98;99415.98;105637;1256;83466;-59
2023/03/25 05:12:37;;;;;;;5.70;2.40;;;;;;;7.40;83.17;99419.58;105594;1252;72832;-59
2023/03/25 05:15:52;;;;;;;5.40;1.80;;;;;;;7.47;83.42;99422.42;105629;1251;69187;-61
2023/03/25 05:19:27;;;;;;;3.90;1.80;;;;;;;7.56;83.64;99422.23;105418;1252;69205;-59
2023/03/25 05:22:39;;;;;;;4.60;2.20;;;;;;;7.64;83.39;99418.78;105501;1251;73223;-63
2023/03/25 05:25:55;;;;;;;5.90;2.00;;;;;;;7.73;83.17;99418.94;105603;1254;83310;-60
2023/03/25 05:29:16;;;;;;;5.00;2.00;;;;;;;7.83;83.08;99420.24;105560;1254;73694;-60
2023/03/25 05:32:39;;;;;;;6.80;2.50;;;;;;;7.95;82.92;99421.00;105407;1252;69179;-59
2023/03/25 05:36:10;;;;;;;;;;;;;;;;;;;;;
2023/03/25 05:39:36;;;;;;;7.80;3.00;;;;;;;8.02;82.48;99421.73;105548;1251;72469;-62
2023/03/25 05:42:45;;;;;;;6.10;2.80;;;;;;;7.97;82.54;99422.95;105677;1257;83368;-61
2023/03/25 05:45:57;;;;;;;6.20;2.70;;;;;;;7.93;82.30;99424.54;105586;1256;72699;-60
2023/03/25 05:49:01;;;;;;;6.30;2.80;;;;;;;7.88;82.28;99427.05;105739;1253;69201;-54
2023/03/25 05:51:42;;;;;;;4.80;2.70;;;;;;;7.82;82.27;99429.35;105723;1253;69281;-54
2023/03/25 05:54:44;;;;;;;5.40;2.10;;;;;;;7.76;82.22;99432.70;105707;1253;73455;-53
2023/03/25 05:57:38;;;;;;;;;;;;;;;;;;;;;
2023/03/25 06:00:37;;;;;;;;;;;;;;;;;;;;;
2023/03/25 06:03:38;;;;;;;6.80;1.50;;;;;;;7.81;82.85;99429.38;105708;1253;69192;-58
2023/03/25 06:06:29;;;;;;;3.50;1.90;;;;;;;7.85;82.60;99429.94;105802;1253;69195;-56
2023/03/25 06:09:45;;;;;;;6.50;2.30;;;;;;;7.87;82.83;99433.50;105865;1253;72291;-54
2023/03/25 06:12:42;;;;;;;;;;;;;;;;;;;;;
2023/03/25 06:15:39;;;;;;;5.00;2.60;;;;;;;7.91;82.91;99439.75;105717;1251;72702;-58
2023/03/25 06:18:37;;;;;;;4.90;2.30;;;;;;;7.96;82.83;99440.27;105699;1251;69188;-58
2023/03/25 06:21:32;;;;;;;5.70;2.30;;;;;;;8.05;82.84;99442.13;105708;1251;69084;-58
2023/03/25 06:24:22;;;;;;;10.10;2.10;;;;;;;8.15;82.77;99440.67;105738;1251;72899;-54
2023/03/25 06:27:06;;;;;;;5.90;2.20;;;;;;;8.27;82.80;99437.75;105754;1253;83418;-55
2023/03/25 06:30:05;;;;;;;6.10;2.20;;;;;;;8.37;82.74;99438.35;105723;1254;72781;-55
2023/03/25 06:33:01;;;;;;;10.60;2.80;;;;;;;8.44;82.81;99442.27;105730;1254;69410;-55
2023/03/25 06:35:54;;;;;;;5.60;2.30;;;;;;;8.52;82.78;99444.70;105931;1253;69278;-54
2023/03/25 06:38:54;;;;;;;;;;;;;;;;;;;;;
2023/03/25 06:41:39;;;;;;;;;;;;;;;;;;;;;
2023/03/25 06:44:30;;;;;;;7.20;2.30;;;;;;;8.71;82.36;99446.63;105777;1253;72778;-58
2023/03/25 06:47:42;;;;;;;4.80;1.90;;;;;;;8.84;82.10;99450.55;105712;1251;69127;-58
2023/03/25 06:50:24;;;;;;;7.30;2.30;;;;;;;8.93;82.10;99451.52;105705;1254;69217;-58
2023/03/25 06:53:13;;;;;;;4.20;2.00;;;;;;;9.03;82.08;99445.04;105756;1253;71538;-58
2023/03/25 06:56:11;;;;;;;5.70;2.70;;;;;;;9.11;82.00;99439.91;105860;1251;82407;-58
2023/03/25 06:58:50;;;;;;;7.70;2.50;;;;;;;9.27;82.21;99443.02;105735;1251;73695;-58
2023/03/25 07:01:43;;;;;;;4.70;2.70;;;;;;;9.44;82.22;99440.84;105706;1251;69097;-59
2023/03/25 07:04:22;;;;;;;6.40;2.80;;;;;;;9.60;81.93;99442.67;105754;1251;69179;-58
2023/03/25 07:07:09;;;;;;;5.80;2.30;;;;;;;9.73;81.79;99440.84;105708;1251;73223;-58
2023/03/25 07:09:49;;;;;;;5.00;2.20;;;;;;;9.80;81.30;99438.91;105685;1253;83395;-58
2023/03/25 07:12:30;;;;;;;4.30;2.10;;;;;;;9.82;81.08;99443.16;105633;1253;73422;-58
2023/03/25 07:15:13;;;;;;;5.20;2.20;;;;;;;9.82;81.18;99440.52;105724;1251;69176;-58
2023/03/25 07:17:59;;;;;;;5.90;2.40;;;;;;;9.81;81.13;99439.56;105664;1251;69110;-59
2023/03/25 07:20:33;;;;;;;5.30;2.70;;;;;;;9.79;81.18;99435.30;105608;1254;72262;-59
2023/03/25 07:23:09;;;;;;;6.30;2.50;;;;;;;9.77;81.06;99435.92;105681;1251;83183;-58
2023/03/25 07:25:43;;;;;;;4.20;2.60;;;;;;;9.75;81.08;99429.04;105784;1251;73721;-58
2023/03/25 07:28:33;;;;;;;5.00;2.60;;;;;;;9.76;80.82;99427.75;105711;1253;69111;-59
2023/03/25 07:31:15;;;;;;;3.70;2.20;;;;;;;9.78;80.85;99427.83;105685;1249;69106;-59
2023/03/25 07:33:47;;;;;;;4.30;2.00;;;;;;;9.85;81.09;99427.31;105830;1251;73416;-56
2023/03/25 07:36:33;;;;;;;3.70;2.20;;;;;;;9.97;80.92;99429.19;105758;1253;83404;-57
2023/03/25 07:39:04;;;;;;;3.60;2.20;;;;;;;10.12;81.22;99426.86;105718;1253;73759;-59
2023/03/25 07:41:54;;;;;;;4.30;2.20;;;;;;;10.32;81.22;99426.56;105734;1251;69169;-57
2023/03/25 07:44:51;;;;;;;5.30;2.20;;;;;;;10.53;81.04;99419.52;105489;1253;69158;-57
2023/03/25 07:47:29;;;;;;;9.40;2.50;;;;;;;10.69;80.68;99422.88;105721;1252;73338;-56
2023/03/25 07:50:26;;;;;;;4.50;1.90;;;;;;;10.81;80.28;99421.03;105686;1257;82340;-62
2023/03/25 07:53:14;;;;;;;4.90;1.90;;;;;;;10.89;79.58;99427.23;105754;1251;73872;-61
2023/03/25 07:56:11;;;;;;;5.40;2.00;;;;;;;10.91;79.47;99425.36;105726;1251;69191;-60
2023/03/25 07:59:08;;;;;;;3.60;1.40;;;;;;;10.94;79.39;99434.25;105695;1251;69168;-59
2023/03/25 08:02:03;;;;;;;6.40;1.70;;;;;;;11.00;79.16;99431.69;105704;1251;73365;-62
2023/03/25 08:04:48;;;;;;;4.30;2.00;;;;;;;11.06;78.76;99431.23;105714;1250;83192;-60
2023/03/25 08:07:43;;;;;;;3.70;1.50;;;;;;;11.15;78.46;99434.40;105680;1251;73764;-61
2023/03/25 08:10:47;;;;;;;6.50;1.70;;;;;;;11.31;78.38;99433.16;105707;1251;69177;-60
2023/03/25 08:13:46;;;;;;;2.30;1.00;;;;;;;11.57;78.36;99429.75;105753;1253;69185;-59
2023/03/25 08:16:32;;;;;;;2.90;1.10;;;;;;;11.87;78.24;99419.66;105718;1251;72898;-61
2023/03/25 08:19:21;;;;;;;3.50;1.00;;;;;;;12.13;77.37;99431.66;105737;1253;83410;-62
2023/03/25 08:22:35;;;;;;;1.60;0.80;;;;;;;12.24;75.60;99433.11;105627;1251;73898;-60
2023/03/25 08:25:14;;;;;;;2.30;1.10;;;;;;;12.25;74.72;99437.39;105699;1251;69074;-61
2023/03/25 08:28:04;;;;;;;3.60;1.00;;;;;;;12.28;74.49;99437.21;105703;1255;69154;-60
2023/03/25 08:30:48;;;;;;;2.50;0.90;;;;;;;12.28;73.85;99440.73;105643;1251;72890;-62
2023/03/25 08:33:50;;;;;;;2.30;0.90;;;;;;;12.28;73.62;99429.01;105750;1251;83657;-62
2023/03/25 08:36:35;;;;;;;5.70;1.10;;;;;;;12.35;73.79;99425.45;105640;1257;72862;-60
2023/03/25 08:39:29;;;;;;;3.80;1.20;;;;;;;12.43;73.81;99428.66;105698;1256;69237;-61
2023/03/25 08:42:15;;;;;;;3.70;0.90;;;;;;;12.51;73.67;99429.76;105663;1251;69188;-62
2023/03/25 08:45:15;;;;;;;;;;;;;;;;;;;;;
2023/03/25 08:47:49;;;;;;;1.40;0.70;;;;;;;12.68;73.56;99430.64;105706;1251;83932;-62
2023/03/25 08:50:45;;;;;;;2.30;0.80;;;;;;;12.86;73.29;99427.77;105661;1249;73921;-62
2023/03/25 08:53:28;;;;;;;1.20;0.80;;;;;;;13.06;73.08;99423.88;105701;1251;69208;-60
2023/03/25 08:56:17;;;;;;;2.60;0.80;;;;;;;13.20;72.54;99422.31;105660;1253;69611;-60
2023/03/25 08:58:54;;;;;;;1.90;0.70;;;;;;;13.17;71.88;99417.95;105703;1251;73316;-62
2023/03/25 09:01:43;;;;;;;1.70;0.90;;;;;;;13.19;71.68;99425.34;105749;1253;83470;-62
2023/03/25 09:04:24;;;;;;;2.60;0.80;;;;;;;13.20;71.08;99425.27;105611;1257;72866;-60
2023/03/25 09:07:13;;;;;;;2.10;0.60;;;;;;;13.22;70.42;99421.13;105740;1253;69236;-63
2023/03/25 09:09:50;;;;;;;1.50;0.70;;;;;;;13.26;70.19;99424.24;105686;1251;69198;-62
2023/03/25 09:12:36;;;;;;;1.70;0.60;;;;;;;13.18;69.15;99427.89;105768;1253;72933;-61
2023/03/25 09:15:21;;;;;;;0.70;0.40;;;;;;;13.08;68.53;99430.45;105700;1253;83639;-60
2023/03/25 09:18:03;;;;;;;2.90;0.60;;;;;;;13.02;68.48;99424.83;105657;1251;73874;-59
2023/03/25 09:20:40;;;;;;;1.10;0.60;;;;;;;12.95;68.27;99428.59;105707;1251;69458;-61
2023/03/25 09:23:21;;;;;;;1.30;0.50;;;;;;;12.88;68.00;99429.59;105681;1250;69721;-61
2023/03/25 09:25:56;;;;;;;3.30;0.60;;;;;;;12.82;68.09;99429.27;105723;1251;73410;-59
2023/03/25 09:28:39;;;;;;;1.40;0.80;;;;;;;12.74;67.66;99432.04;105745;1253;83379;-60
2023/03/25 09:31:19;;;;;;;2.70;0.70;;;;;;;12.62;67.65;99439.08;105692;1249;72892;-62
2023/03/25 09:34:07;;;;;;;5.00;0.80;;;;;;;12.47;67.36;99443.81;105670;1253;69217;-59
2023/03/25 09:36:53;;;;;;;3.60;1.00;;;;;;;12.29;67.65;99450.33;105688;1251;69567;-60
2023/03/25 09:39:34;;;;;;;2.50;0.80;;;;;;;12.05;67.76;99462.05;105692;1251;74357;-60
2023/03/25 09:42:49;;;;;;;1.50;0.70;;;;;;;11.78;68.37;99459.06;105699;1253;83441;-60
2023/03/25 09:45:56;;;;;;;1.90;0.80;;;;;;;11.64;69.39;99465.97;105583;1251;73767;-62
2023/03/25 09:48:48;;;;;;;1.30;0.60;;;;;;;11.75;69.98;99462.54;105349;1256;69292;-58
2023/03/25 09:51:44;;;;;;;2.30;1.10;;;;;;;12.02;70.65;99461.71;105730;1253;69592;-61
2023/03/25 09:54:26;;;;;;;2.30;1.10;;;;;;;12.51;70.21;99465.98;105763;1253;73017;-64
2023/03/25 09:57:10;;;;;;;1.70;0.80;;;;;;;12.81;69.68;99464.34;105758;1251;83041;-60
2023/03/25 09:59:48;;;;;;;2.50;0.80;;;;;;;13.05;69.55;99457.30;105532;1251;73845;-59
2023/03/25 10:02:41;;;;;;;1.50;0.70;;;;;;;13.25;69.09;99451.48;105555;1251;69202;-60
2023/03/25 10:05:52;;;;;;;1.70;0.70;;;;;;;13.26;67.96;99458.42;105629;1256;69208;-58
2023/03/25 10:08:52;;;;;;;2.60;0.90;;;;;;;13.04;67.46;99455.91;105540;1251;74129;-58
2023/03/25 10:11:35;;;;;;;0.80;0.50;;;;;;;12.89;67.60;99445.27;105653;1251;82618;-59
2023/03/25 10:14:27;;;;;;;1.50;1.00;;;;;;;12.83;67.44;99444.42;105636;1250;72532;-59
2023/03/25 10:17:35;;;;;;;1.60;0.80;;;;;;;12.76;67.37;99438.58;105702;1253;69176;-61
2023/03/25 10:20:37;;;;;;;;;;;;;;;;;;;;;
2023/03/25 10:23:25;;;;;;;5.50;2.20;;;;;;;12.70;67.28;99432.75;105642;1251;73148;-58
2023/03/25 10:26:19;;;;;;;2.20;0.90;;;;;;;12.78;67.29;99431.10;105592;1251;83387;-58
2023/03/25 10:29:03;;;;;;;3.20;1.40;;;;;;;12.85;66.88;99423.60;105716;1251;73197;-61
2023/03/25 10:31:42;;;;;;;2.20;0.90;;;;;;;13.00;66.81;99419.69;105761;1251;69128;-59
2023/03/25 10:34:20;;;;;;;1.00;0.80;;;;;;;13.24;65.92;99416.81;105739;1251;70737;-63
2023/03/25 10:36:57;;;;;;;0.80;0.40;;;;;;;13.58;65.21;99410.06;105760;1251;73003;-60
2023/03/25 10:39:33;;;;;;;2.60;1.40;;;;;;;13.76;65.19;99404.68;105716;1251;82400;-59
2023/03/25 10:42:43;;;;;;;2.90;0.70;;;;;;;14.23;65.38;99394.35;105718;1254;73117;-59
2023/03/25 10:45:17;;;;;;;2.00;1.10;;;;;;;14.89;64.61;99387.52;105071;1258;69099;-59
2023/03/25 10:47:50;;;;;;;1.00;0.60;;;;;;;15.16;63.27;99378.16;105024;1263;69212;-61
2023/03/25 10:50:21;;;;;;;6.50;1.20;;;;;;;15.55;62.93;99381.98;104995;1259;74132;-60
2023/03/25 10:52:55;;;;;;;2.60;0.40;;;;;;;15.67;61.21;99374.42;104936;1265;83447;-61
2023/03/25 10:55:27;;;;;;;2.00;0.60;;;;;;;15.89;59.37;99373.70;105021;1263;72857;-63
2023/03/25 10:57:56;;;;;;;2.60;0.50;;;;;;;16.08;58.31;99381.45;105039;1259;69179;-59
2023/03/25 11:00:33;;;;;;;1.20;0.60;;;;;;;16.30;57.47;99379.06;105000;1260;69202;-61
2023/03/25 11:03:04;;;;;;;1.70;0.30;;;;;;;16.47;55.76;99378.27;105101;1259;73069;-59
2023/03/25 11:05:33;;;;;;;1.00;0.30;;;;;;;16.48;55.85;99368.27;105016;1262;83552;-61
2023/03/25 11:08:04;;;;;;;0.90;0.30;;;;;;;16.76;56.24;99372.80;104969;1260;72641;-61
2023/03/25 11:10:56;;;;;;;1.70;0.40;;;;;;;16.93;53.74;99370.94;104992;1262;69196;-60
2023/03/25 11:13:29;;;;;;;1.10;0.40;;;;;;;17.05;54.28;99375.48;105006;1259;69552;-60
2023/03/25 11:16:01;;;;;;;0.60;0.20;;;;;;;17.11;54.04;99377.42;105277;1251;74196;-61
2023/03/25 11:18:33;;;;;;;2.00;0.50;;;;;;;17.04;53.49;99375.05;105547;1256;83519;-60
2023/03/25 11:21:07;;;;;;;1.00;0.40;;;;;;;16.89;52.32;99380.23;105761;1250;73664;-61
2023/03/25 11:23:37;;;;;;;1.10;0.40;;;;;;;16.75;51.02;99377.49;105647;1256;69223;-60
2023/03/25 11:26:11;;;;;;;2.40;0.40;;;;;;;16.82;50.98;99371.13;105657;1256;69563;-64
2023/03/25 11:28:42;;;;;;;1.70;0.20;;;;;;;16.68;49.26;99377.67;105731;1251;74536;-61
2023/03/25 11:31:15;;;;;;;2.50;0.40;;;;;;;16.39;50.14;99377.98;105712;1254;83394;-59
2023/03/25 11:33:45;;;;;;;1.00;0.40;;;;;;;16.61;49.86;99368.84;105695;1251;73455;-63
2023/03/25 11:36:24;;;;;;;1.90;0.40;;;;;;;16.92;50.60;99365.05;105648;1253;69158;-59
2023/03/25 11:38:59;;;;;;;1.60;0.50;;;;;;;17.36;51.26;99368.20;105757;1250;69200;-61
2023/03/25 11:41:32;;;;;;;4.10;0.40;;;;;;;17.86;50.47;99366.38;105772;1251;74186;-61
2023/03/25 11:44:02;;;;;;;1.80;0.40;;;;;;;18.09;49.35;99368.30;105746;1251;82538;-59
2023/03/25 11:46:30;;;;;;;;;;;;;;;18.26;49.60;99360.20;105721;1251;73873;-60
2023/03/25 11:49:13;;;;;;;1.30;0.30;;;;;;;18.30;49.10;99359.32;105773;1253;69175;-61
2023/03/25 11:51:44;;;;;;;1.20;0.50;;;;;;;17.89;47.65;99370.52;105745;1251;69320;-61
2023/03/25 11:54:16;;;;;;;1.40;0.40;;;;;;;17.19;47.20;99370.13;105757;1251;74080;-58
2023/03/25 11:56:48;;;;;;;1.30;0.40;;;;;;;16.66;47.74;99372.21;105683;1253;83494;-60
2023/03/25 11:59:27;;;;;;;3.30;0.40;;;;;;;16.44;47.91;99375.27;105607;1251;73704;-59
2023/03/25 12:02:15;;;;;;;1.80;0.50;;;;;;;16.10;47.69;99382.89;105691;1251;69134;-61
2023/03/25 12:05:03;;;;;;;1.80;0.50;;;;;;;15.65;48.63;99381.84;105704;1251;69186;-57
2023/03/25 12:07:47;;;;;;;2.00;0.40;;;;;;;15.53;49.69;99384.95;105566;1251;74183;-58
2023/03/25 12:10:19;;;;;;;1.70;0.50;;;;;;;15.41;50.23;99380.97;105682;1251;83411;-58
2023/03/25 12:13:30;;;;;;;0.30;0.30;;;;;;;15.04;50.21;99391.65;105449;1251;73269;-59
2023/03/25 12:16:23;;;;;;;6.80;0.70;;;;;;;14.61;51.63;99404.25;105650;1251;69141;-61
2023/03/25 12:19:18;;;;;;;5.60;0.60;;;;;;;14.37;53.65;99399.35;105629;1256;69401;-59
2023/03/25 12:22:03;;;;;;;3.70;0.30;;;;;;;14.39;54.46;99392.02;105609;1256;74249;-59
2023/03/25 12:25:13;;;;;;;3.00;0.40;;;;;;;14.73;55.24;99399.88;105583;1251;83376;-60
2023/03/25 12:28:08;;;;;;;2.40;0.10;;;;;;;15.09;54.14;99392.44;105641;1251;73741;-60
2023/03/25 12:31:12;;;;;;;3.50;0.50;;;;;;;14.93;53.42;99398.48;105772;1251;69201;-59
2023/03/25 12:33:56;;;;;;;2.80;0.20;;;;;;;14.56;53.75;99398.23;105671;1249;69177;-60
2023/03/25 12:37:12;;;;;;;0.90;0.20;;;;;;;14.15;53.89;99403.16;105634;1251;73857;-59
2023/03/25 12:40:08;;;;;;;2.10;0.30;;;;;;;13.96;54.70;99399.64;105078;1260;83542;-60
2023/03/25 12:42:51;;;;;;;4.60;0.20;;;;;;;13.80;54.39;99403.74;105688;1256;73290;-59
2023/03/25 12:46:06;;;;;;;3.30;0.30;;;;;;;13.48;53.65;99412.64;105630;1251;69183;-60
2023/03/25 12:49:40;;;;;;;4.20;0.20;;;;;;;13.10;54.05;99400.52;105663;1250;69163;-59
2023/03/25 12:52:40;;;;;;;4.70;0.70;;;;;;;12.83;54.47;99402.73;105050;1260;74008;-58
2023/03/25 12:55:30;;;;;;;2.10;0.30;;;;;;;12.67;54.92;99399.66;105073;1262;83466;-60
2023/03/25 12:58:18;;;;;;;0.80;0.30;;;;;;;12.64;55.18;99399.34;105049;1262;73694;-59
2023/03/25 13:01:35;;;;;;;1.20;0.40;;;;;;;12.71;55.44;99403.98;105099;1262;69277;-59
2023/03/25 13:04:16;;;;;;;3.20;0.20;;;;;;;12.94;56.05;99400.48;104944;1259;69212;-61
2023/03/25 13:06:57;;;;;;;1.30;0.30;;;;;;;13.24;55.70;99401.20;105012;1260;74272;-63
2023/03/25 13:09:51;;;;;;;0.30;0.20;;;;;;;13.17;55.14;99400.91;105044;1262;83497;-62
2023/03/25 13:12:48;;;;;;;0.70;0.20;;;;;;;13.02;55.18;99396.60;105079;1260;73676;-60
2023/03/25 13:15:39;;;;;;;1.00;0.20;;;;;;;12.99;55.86;99396.12;104996;1260;69267;-58
2023/03/25 13:18:19;;;;;;;2.70;0.20;;;;;;;13.12;56.26;99393.68;105039;1260;69161;-61
2023/03/25 13:20:59;;;;;;;2.40;0.30;;;;;;;13.17;55.96;99394.75;105069;1262;73263;-63
2023/03/25 13:23:38;;;;;;;3.20;0.50;;;;;;;13.21;56.06;99401.22;105041;1260;83391;-59
2023/03/25 13:26:28;;;;;;;1.00;0.60;;;;;;;13.16;55.99;99398.86;105001;1262;74008;-59
2023/03/25 13:29:02;;;;;;;1.60;0.30;;;;;;;13.12;56.24;99384.55;105445;1256;69238;-58
2023/03/25 13:31:49;;;;;;;1.30;0.20;;;;;;;13.23;56.60;99385.13;105636;1253;69221;-58
2023/03/25 13:34:35;;;;;;;2.50;0.30;;;;;;;13.42;57.05;99380.21;105562;1251;74075;-58
2023/03/25 13:37:37;;;;;;;2.90;0.20;;;;;;;13.68;56.78;99380.44;105525;1251;83259;-56
2023/03/25 13:40:32;;;;;;;141.00;90.20;;;;;;;14.33;57.18;99367.78;105605;1251;73817;-60
2023/03/25 13:43:30;;;;;;;30.20;19.00;;;;;;;15.06;56.65;99364.82;105640;1253;69455;-60
2023/03/25 13:46:08;;;;;;;14.90;9.10;;;;;;;15.29;56.01;99368.55;105792;1253;69185;-58
2023/03/25 13:48:46;;;;;;;34.00;28.50;;;;;;;15.33;55.01;99375.36;105635;1253;74340;-59
2023/03/25 13:51:15;;;;;;;4.60;2.40;;;;;;;15.15;54.27;99371.51;105568;1251;83473;-58
2023/03/25 13:53:55;;;;;;;23.00;19.00;;;;;;;14.95;54.35;99369.45;105694;1254;73886;-59
2023/03/25 13:56:32;;;;;;;2.20;0.90;;;;;;;14.81;54.62;99370.84;105580;1252;69297;-58
2023/03/25 13:59:16;;;;;;;2.10;0.70;;;;;;;14.76;54.43;99370.12;105848;1253;69160;-58
2023/03/25 14:02:17;;;;;;;4.30;3.30;;;;;;;14.71;54.43;99377.98;105640;1253;74238;-59
2023/03/25 14:05:24;;;;;;;3.90;2.60;;;;;;;14.69;53.89;99372.50;105509;1253;83338;-59
2023/03/25 14:08:00;;;;;;;1.90;1.20;;;;;;;14.58;54.43;99364.91;105610;1252;72961;-58
2023/03/25 14:10:58;;;;;;;0.50;0.20;;;;;;;14.54;54.17;99370.77;105763;1251;69179;-61
2023/03/25 14:13:34;;;;;;;1.10;0.30;;;;;;;14.55;53.96;99370.71;105781;1249;69213;-62
2023/03/25 14:16:13;;;;;;;0.70;0.40;;;;;;;14.34;53.56;99371.58;105767;1251;74264;-61
2023/03/25 14:19:12;;;;;;;46.80;36.10;;;;;;;14.09;53.88;99368.41;105738;1253;83473;-59
2023/03/25 14:21:49;;;;;;;1.20;0.90;;;;;;;13.84;54.14;99374.66;105655;1251;73247;-60
2023/03/25 14:24:31;;;;;;;5.60;3.30;;;;;;;13.63;54.40;99372.70;105656;1252;69170;-61
2023/03/25 14:27:05;;;;;;;10.40;7.70;;;;;;;13.44;54.71;99373.61;105691;1252;69198;-58
2023/03/25 14:29:46;;;;;;;1.60;1.00;;;;;;;13.25;54.70;99382.55;105670;1251;73944;-62
2023/03/25 14:32:32;;;;;;;3.20;2.50;;;;;;;12.94;54.26;99386.42;105751;1253;83464;-60
2023/03/25 14:35:35;;;;;;;0.70;0.60;;;;;;;12.55;54.90;99381.83;105709;1251;73877;-62
2023/03/25 14:38:17;;;;;;;72.10;55.80;;;;;;;12.54;55.76;99378.59;105685;1253;69176;-58
2023/03/25 14:40:57;;;;;;;53.50;47.80;;;;;;;12.92;56.46;99377.24;105753;1252;69297;-61
2023/03/25 14:43:51;;;;;;;0.90;0.40;;;;;;;13.70;56.45;99381.32;105768;1253;73197;-60
2023/03/25 14:46:22;;;;;;;3.50;2.80;;;;;;;14.26;55.77;99376.17;105793;1253;82397;-60
2023/03/25 14:49:04;;;;;;;1.20;0.60;;;;;;;14.80;55.38;99374.58;105785;1251;72877;-61
2023/03/25 14:51:41;;;;;;;1.30;0.70;;;;;;;15.31;54.89;99367.94;105724;1251;69081;-61
2023/03/25 14:54:15;;;;;;;0.70;0.30;;;;;;;15.79;54.70;99366.73;105707;1253;69153;-58